<?xml version="1.0" encoding="UTF-8" standalone="no" ?>
<gpx xmlns="http://www.topografix.com/GPX/1/1" xmlns:xsi="http://www.w3.org/2001/XMLSchema-instance" xsi:schemaLocation="http://www.topografix.com/GPX/1/1 http://www.topografix.com/GPX/1/1/gpx.xsd" version="1.1" creator="VisuGPX - https://www.visugpx.com">
  <metadata>
    <name>Centre historique de Riom</name>
  </metadata>
  <wpt lat="45.89019" lon="3.11698">
    <ele>342</ele>
    <name><![CDATA[Parking Square Virlogeux]]></name>
  </wpt>
  <wpt lat="45.89218" lon="3.11319">
    <ele>354</ele>
    <name><![CDATA[font a droi]]></name>
  </wpt>
  <wpt lat="45.89315" lon="3.11038">
    <ele>357</ele>
    <name><![CDATA[Fontaine dite d'Adam et Eve]]></name>
  </wpt>
  <wpt lat="45.89322" lon="3.10947">
    <ele>356</ele>
    <name><![CDATA[porte et mais a escaliers]]></name>
  </wpt>
  <wpt lat="45.89405" lon="3.11104">
    <ele>357</ele>
    <name><![CDATA[font]]></name>
  </wpt>
  <wpt lat="45.89456" lon="3.11234">
    <ele>357</ele>
    <name><![CDATA[font]]></name>
  </wpt>
  <wpt lat="45.89287" lon="3.11338">
    <ele>358</ele>
    <name><![CDATA[Rue du Commerce à gauche]]></name>
  </wpt>
  <wpt lat="45.89472" lon="3.11361">
    <ele>357</ele>
    <name><![CDATA[font]]></name>
  </wpt>
  <wpt lat="45.89561" lon="3.11694">
    <ele>348</ele>
    <name><![CDATA[Rue Saint-Louis à droite]]></name>
  </wpt>
  <wpt lat="45.89383" lon="3.11436">
    <ele>359</ele>
    <name><![CDATA[Rue Croisier à gauche]]></name>
  </wpt>
  <wpt lat="45.89044" lon="3.116">
    <ele>344</ele>
    <name><![CDATA[beau cedre]]></name>
  </wpt>
  <wpt lat="45.8902" lon="3.11697">
    <ele>342</ele>
    <name><![CDATA[Parking Square Virlogeux]]></name>
  </wpt>
  <trk>
    <name><![CDATA[Centre historique de Riom]]></name>
    <trkseg>
      <trkpt lat="45.89019" lon="3.11698">
        <ele>342</ele>
        <time>2018-12-25T14:10:18+01:00</time>
      </trkpt>
      <trkpt lat="45.89052" lon="3.11702">
        <ele>343</ele>
        <time>2018-12-25T14:11:58+01:00</time>
      </trkpt>
      <trkpt lat="45.8906" lon="3.11673">
        <ele>344</ele>
        <time>2018-12-25T14:12:39+01:00</time>
      </trkpt>
      <trkpt lat="45.89069" lon="3.11644">
        <ele>345</ele>
        <time>2018-12-25T14:13:01+01:00</time>
      </trkpt>
      <trkpt lat="45.89083" lon="3.11616">
        <ele>345</ele>
        <time>2018-12-25T14:13:19+01:00</time>
      </trkpt>
      <trkpt lat="45.89093" lon="3.11574">
        <ele>345</ele>
        <time>2018-12-25T14:13:39+01:00</time>
      </trkpt>
      <trkpt lat="45.89101" lon="3.11558">
        <ele>346</ele>
        <time>2018-12-25T14:14:16+01:00</time>
      </trkpt>
      <trkpt lat="45.89116" lon="3.11536">
        <ele>347</ele>
        <time>2018-12-25T14:14:38+01:00</time>
      </trkpt>
      <trkpt lat="45.89128" lon="3.11552">
        <ele>347</ele>
        <time>2018-12-25T14:15:11+01:00</time>
      </trkpt>
      <trkpt lat="45.89149" lon="3.11505">
        <ele>349</ele>
        <time>2018-12-25T14:15:28+01:00</time>
      </trkpt>
      <trkpt lat="45.89162" lon="3.11477">
        <ele>350</ele>
        <time>2018-12-25T14:15:47+01:00</time>
      </trkpt>
      <trkpt lat="45.89173" lon="3.11451">
        <ele>350</ele>
        <time>2018-12-25T14:16:26+01:00</time>
      </trkpt>
      <trkpt lat="45.89188" lon="3.11427">
        <ele>351</ele>
        <time>2018-12-25T14:16:44+01:00</time>
      </trkpt>
      <trkpt lat="45.89197" lon="3.11397">
        <ele>352</ele>
        <time>2018-12-25T14:17:25+01:00</time>
      </trkpt>
      <trkpt lat="45.89205" lon="3.1136">
        <ele>353</ele>
        <time>2021-07-27T17:52:39+02:00</time>
      </trkpt>
      <trkpt lat="45.89218" lon="3.11319">
        <ele>354</ele>
        <time>2018-12-25T14:22:30+01:00</time>
      </trkpt>
      <trkpt lat="45.89219" lon="3.11283">
        <ele>353</ele>
        <time>2018-12-25T14:25:42+01:00</time>
      </trkpt>
      <trkpt lat="45.89229" lon="3.11218">
        <ele>354</ele>
        <time>2018-12-25T14:26:22+01:00</time>
      </trkpt>
      <trkpt lat="45.8924" lon="3.11153">
        <ele>354</ele>
        <time>2018-12-25T14:27:55+01:00</time>
      </trkpt>
      <trkpt lat="45.89249" lon="3.11088">
        <ele>352</ele>
        <time>2018-12-25T14:30:46+01:00</time>
      </trkpt>
      <trkpt lat="45.89251" lon="3.11045">
        <ele>352</ele>
        <time>2021-07-27T17:53:09+02:00</time>
      </trkpt>
      <trkpt lat="45.89261" lon="3.11003">
        <ele>353</ele>
        <time>2018-12-25T14:31:26+01:00</time>
      </trkpt>
      <trkpt lat="45.89283" lon="3.11018">
        <ele>355</ele>
        <time>2018-12-25T14:32:23+01:00</time>
      </trkpt>
      <trkpt lat="45.89315" lon="3.11038">
        <ele>357</ele>
        <time>2018-12-25T14:32:51+01:00</time>
      </trkpt>
      <trkpt lat="45.89318" lon="3.1101">
        <ele>357</ele>
        <time>2018-12-25T14:34:35+01:00</time>
      </trkpt>
      <trkpt lat="45.89318" lon="3.10979">
        <ele>356</ele>
        <time>2018-12-25T14:34:54+01:00</time>
      </trkpt>
      <trkpt lat="45.89322" lon="3.10947">
        <ele>356</ele>
        <time>2018-12-25T14:35:27+01:00</time>
      </trkpt>
      <trkpt lat="45.89318" lon="3.10979">
        <ele>356</ele>
        <time>2018-12-25T14:37:33+01:00</time>
      </trkpt>
      <trkpt lat="45.89317" lon="3.11009">
        <ele>357</ele>
        <time>2018-12-25T14:37:50+01:00</time>
      </trkpt>
      <trkpt lat="45.8932" lon="3.11041">
        <ele>358</ele>
        <time>2018-12-25T14:38:05+01:00</time>
      </trkpt>
      <trkpt lat="45.89318" lon="3.11083">
        <ele>358</ele>
        <time>2018-12-25T14:38:39+01:00</time>
      </trkpt>
      <trkpt lat="45.89347" lon="3.11073">
        <ele>359</ele>
        <time>2018-12-25T14:39:02+01:00</time>
      </trkpt>
      <trkpt lat="45.89375" lon="3.11072">
        <ele>358</ele>
        <time>2018-12-25T14:39:15+01:00</time>
      </trkpt>
      <trkpt lat="45.89398" lon="3.1107">
        <ele>357</ele>
        <time>2018-12-25T14:39:54+01:00</time>
      </trkpt>
      <trkpt lat="45.89409" lon="3.1107">
        <ele>356</ele>
        <time>2018-12-25T14:43:43+01:00</time>
      </trkpt>
      <trkpt lat="45.89405" lon="3.11104">
        <ele>357</ele>
        <time>2018-12-25T14:45:16+01:00</time>
      </trkpt>
      <trkpt lat="45.89401" lon="3.11144">
        <ele>359</ele>
        <time>2018-12-25T14:46:03+01:00</time>
      </trkpt>
      <trkpt lat="45.89407" lon="3.11185">
        <ele>360</ele>
        <time>2018-12-25T14:48:41+01:00</time>
      </trkpt>
      <trkpt lat="45.89404" lon="3.1114">
        <ele>359</ele>
        <time>2018-12-25T14:54:27+01:00</time>
      </trkpt>
      <trkpt lat="45.8943" lon="3.11135">
        <ele>357</ele>
        <time>2018-12-25T14:54:52+01:00</time>
      </trkpt>
      <trkpt lat="45.8945" lon="3.11125">
        <ele>355</ele>
        <time>2018-12-25T14:55:19+01:00</time>
      </trkpt>
      <trkpt lat="45.89462" lon="3.11169">
        <ele>355</ele>
        <time>2018-12-25T14:55:37+01:00</time>
      </trkpt>
      <trkpt lat="45.89463" lon="3.11201">
        <ele>356</ele>
        <time>2018-12-25T14:55:57+01:00</time>
      </trkpt>
      <trkpt lat="45.89456" lon="3.11234">
        <ele>357</ele>
        <time>2018-12-25T14:56:12+01:00</time>
      </trkpt>
      <trkpt lat="45.89439" lon="3.11255">
        <ele>359</ele>
        <time>2018-12-25T14:57:21+01:00</time>
      </trkpt>
      <trkpt lat="45.89417" lon="3.11263">
        <ele>361</ele>
        <time>2018-12-25T14:57:43+01:00</time>
      </trkpt>
      <trkpt lat="45.89394" lon="3.11257">
        <ele>361</ele>
        <time>2018-12-25T14:57:59+01:00</time>
      </trkpt>
      <trkpt lat="45.8937" lon="3.11256">
        <ele>362</ele>
        <time>2018-12-25T14:59:31+01:00</time>
      </trkpt>
      <trkpt lat="45.8933" lon="3.11254">
        <ele>362</ele>
        <time>2018-12-25T15:00:44+01:00</time>
      </trkpt>
      <trkpt lat="45.893" lon="3.11242">
        <ele>359</ele>
        <time>2018-12-25T15:01:20+01:00</time>
      </trkpt>
      <trkpt lat="45.89293" lon="3.11289">
        <ele>359</ele>
        <time>2018-12-25T15:02:49+01:00</time>
      </trkpt>
      <trkpt lat="45.89287" lon="3.11338">
        <ele>358</ele>
        <time>2018-12-25T15:03:13+01:00</time>
      </trkpt>
      <trkpt lat="45.89325" lon="3.11341">
        <ele>360</ele>
        <time>2018-12-25T15:04:33+01:00</time>
      </trkpt>
      <trkpt lat="45.89371" lon="3.11343">
        <ele>361</ele>
        <time>2018-12-25T15:05:12+01:00</time>
      </trkpt>
      <trkpt lat="45.89394" lon="3.1135">
        <ele>361</ele>
        <time>2018-12-25T15:05:46+01:00</time>
      </trkpt>
      <trkpt lat="45.89416" lon="3.11356">
        <ele>361</ele>
        <time>2018-12-25T15:08:22+01:00</time>
      </trkpt>
      <trkpt lat="45.89425" lon="3.11326">
        <ele>360</ele>
        <time>2018-12-25T15:10:22+01:00</time>
      </trkpt>
      <trkpt lat="45.89417" lon="3.11357">
        <ele>361</ele>
        <time>2018-12-25T15:10:34+01:00</time>
      </trkpt>
      <trkpt lat="45.89437" lon="3.11359">
        <ele>359</ele>
        <time>2018-12-25T15:13:17+01:00</time>
      </trkpt>
      <trkpt lat="45.89472" lon="3.11361">
        <ele>357</ele>
        <time>2018-12-25T15:13:41+01:00</time>
      </trkpt>
      <trkpt lat="45.89477" lon="3.11402">
        <ele>356</ele>
        <time>2018-12-25T15:15:01+01:00</time>
      </trkpt>
      <trkpt lat="45.89482" lon="3.11446">
        <ele>355</ele>
        <time>2018-12-25T15:18:37+01:00</time>
      </trkpt>
      <trkpt lat="45.89487" lon="3.1147">
        <ele>355</ele>
        <time>2018-12-25T15:19:22+01:00</time>
      </trkpt>
      <trkpt lat="45.89494" lon="3.11503">
        <ele>355</ele>
        <time>2018-12-25T15:19:38+01:00</time>
      </trkpt>
      <trkpt lat="45.89516" lon="3.11564">
        <ele>354</ele>
        <time>2018-12-25T15:21:03+01:00</time>
      </trkpt>
      <trkpt lat="45.89527" lon="3.11589">
        <ele>353</ele>
        <time>2018-12-25T15:22:07+01:00</time>
      </trkpt>
      <trkpt lat="45.89547" lon="3.11645">
        <ele>350</ele>
        <time>2018-12-25T15:22:41+01:00</time>
      </trkpt>
      <trkpt lat="45.89561" lon="3.11694">
        <ele>348</ele>
        <time>2018-12-25T15:22:58+01:00</time>
      </trkpt>
      <trkpt lat="45.89539" lon="3.11692">
        <ele>351</ele>
        <time>2018-12-25T15:23:37+01:00</time>
      </trkpt>
      <trkpt lat="45.89494" lon="3.11702">
        <ele>355</ele>
        <time>2018-12-25T15:24:06+01:00</time>
      </trkpt>
      <trkpt lat="45.89451" lon="3.11707">
        <ele>355</ele>
        <time>2018-12-25T15:24:50+01:00</time>
      </trkpt>
      <trkpt lat="45.8941" lon="3.11712">
        <ele>355</ele>
        <time>2018-12-25T15:25:10+01:00</time>
      </trkpt>
      <trkpt lat="45.89424" lon="3.11747">
        <ele>353</ele>
        <time>2018-12-25T15:27:40+01:00</time>
      </trkpt>
      <trkpt lat="45.89447" lon="3.11752">
        <ele>353</ele>
        <time>2018-12-25T15:27:57+01:00</time>
      </trkpt>
      <trkpt lat="45.89422" lon="3.11748">
        <ele>353</ele>
        <time>2018-12-25T15:29:13+01:00</time>
      </trkpt>
      <trkpt lat="45.89406" lon="3.11715">
        <ele>355</ele>
        <time>2018-12-25T15:30:27+01:00</time>
      </trkpt>
      <trkpt lat="45.89395" lon="3.11657">
        <ele>357</ele>
        <time>2018-12-25T15:31:14+01:00</time>
      </trkpt>
      <trkpt lat="45.89387" lon="3.11626">
        <ele>357</ele>
        <time>2018-12-25T15:31:41+01:00</time>
      </trkpt>
      <trkpt lat="45.89383" lon="3.11563">
        <ele>357</ele>
        <time>2018-12-25T15:32:24+01:00</time>
      </trkpt>
      <trkpt lat="45.89385" lon="3.11512">
        <ele>357</ele>
        <time>2018-12-25T15:32:46+01:00</time>
      </trkpt>
      <trkpt lat="45.89384" lon="3.11509">
        <ele>357</ele>
        <time>2018-12-25T15:36:46+01:00</time>
      </trkpt>
      <trkpt lat="45.89383" lon="3.11436">
        <ele>359</ele>
        <time>2018-12-25T15:37:09+01:00</time>
      </trkpt>
      <trkpt lat="45.89336" lon="3.11437">
        <ele>359</ele>
        <time>2018-12-25T15:41:56+01:00</time>
      </trkpt>
      <trkpt lat="45.89282" lon="3.11424">
        <ele>358</ele>
        <time>2018-12-25T15:42:33+01:00</time>
      </trkpt>
      <trkpt lat="45.89272" lon="3.11503">
        <ele>355</ele>
        <time>2018-12-25T15:43:21+01:00</time>
      </trkpt>
      <trkpt lat="45.89269" lon="3.11581">
        <ele>353</ele>
        <time>2018-12-25T15:45:08+01:00</time>
      </trkpt>
      <trkpt lat="45.89221" lon="3.11577">
        <ele>351</ele>
        <time>2018-12-25T15:45:46+01:00</time>
      </trkpt>
      <trkpt lat="45.89178" lon="3.11577">
        <ele>349</ele>
        <time>2018-12-25T15:46:30+01:00</time>
      </trkpt>
      <trkpt lat="45.89139" lon="3.11573">
        <ele>347</ele>
        <time>2018-12-25T15:46:50+01:00</time>
      </trkpt>
      <trkpt lat="45.89118" lon="3.11533">
        <ele>347</ele>
        <time>2018-12-25T15:47:30+01:00</time>
      </trkpt>
      <trkpt lat="45.89104" lon="3.11515">
        <ele>347</ele>
        <time>2018-12-25T15:47:47+01:00</time>
      </trkpt>
      <trkpt lat="45.89093" lon="3.11491">
        <ele>347</ele>
        <time>2018-12-25T15:48:02+01:00</time>
      </trkpt>
      <trkpt lat="45.8908" lon="3.11516">
        <ele>346</ele>
        <time>2018-12-25T15:49:11+01:00</time>
      </trkpt>
      <trkpt lat="45.89072" lon="3.11544">
        <ele>345</ele>
        <time>2018-12-25T15:49:50+01:00</time>
      </trkpt>
      <trkpt lat="45.89044" lon="3.11551">
        <ele>344</ele>
        <time>2018-12-25T15:50:24+01:00</time>
      </trkpt>
      <trkpt lat="45.89044" lon="3.116">
        <ele>344</ele>
        <time>2018-12-25T15:50:43+01:00</time>
      </trkpt>
      <trkpt lat="45.89046" lon="3.1164">
        <ele>344</ele>
        <time>2018-12-25T15:51:24+01:00</time>
      </trkpt>
      <trkpt lat="45.89046" lon="3.11676">
        <ele>344</ele>
        <time>2018-12-25T15:51:55+01:00</time>
      </trkpt>
      <trkpt lat="45.89033" lon="3.117">
        <ele>343</ele>
        <time>2018-12-25T15:52:16+01:00</time>
      </trkpt>
      <trkpt lat="45.8902" lon="3.11697">
        <ele>342</ele>
        <time>2018-12-25T15:53:11+01:00</time>
      </trkpt>
    </trkseg>
  </trk>
</gpx>